createdAt,value
2019-04-05T00:01:03.866Z,91.85
2019-04-05T00:03:35.642Z,91.94
2019-04-05T00:06:07.413Z,91.26
2019-04-05T00:08:39.282Z,91.29
2019-04-05T00:11:11.718Z,91.20
2019-04-05T00:13:43.591Z,91.25
2019-04-05T00:16:15.645Z,90.96
2019-04-05T00:18:47.720Z,91.19
2019-04-05T00:21:19.515Z,91.38
2019-04-05T00:23:51.223Z,91.28
2019-04-05T00:26:22.911Z,91.25
2019-04-05T00:28:55.064Z,91.75
2019-04-05T00:31:26.805Z,91.65
2019-04-05T00:33:59.563Z,91.97
2019-04-05T00:36:31.648Z,92.01
2019-04-05T00:39:04.065Z,92.06
2019-04-05T00:41:36.390Z,91.70
2019-04-05T00:44:08.229Z,91.40
2019-04-05T00:46:40.018Z,91.33
2019-04-05T00:49:11.719Z,91.02
2019-04-05T00:51:43.849Z,91.32
2019-04-05T00:54:15.914Z,91.21
2019-04-05T00:56:47.773Z,91.16
2019-04-05T00:59:19.635Z,91.03
2019-04-05T01:01:51.754Z,91.33
2019-04-05T01:04:23.795Z,91.49
2019-04-05T01:06:55.636Z,91.41
2019-04-05T01:09:27.434Z,92.01
2019-04-05T01:11:59.216Z,92.10
2019-04-05T01:14:31.110Z,91.35
2019-04-05T01:17:02.869Z,91.19
2019-04-05T01:19:36.556Z,90.96
2019-04-05T01:22:10.643Z,91.52
2019-04-05T01:24:42.921Z,91.07
2019-04-05T01:27:15.516Z,90.97
2019-04-05T01:29:47.379Z,91.18
2019-04-05T01:32:20.070Z,91.87
2019-04-05T01:34:51.864Z,92.51
2019-04-05T01:37:24.209Z,91.32
2019-04-05T01:39:56.062Z,91.24
2019-04-05T01:42:28.109Z,91.39
2019-04-05T01:45:00.295Z,91.10
2019-04-05T01:47:32.116Z,91.58
2019-04-05T01:50:06.159Z,92.53
2019-04-05T01:52:38.221Z,90.96
2019-04-05T01:55:10.157Z,91.85
2019-04-05T01:57:41.922Z,91.48
2019-04-05T02:00:14.595Z,90.92
2019-04-05T02:02:46.590Z,91.21
2019-04-05T02:05:18.611Z,91.79
2019-04-05T02:07:50.695Z,91.14
2019-04-05T02:10:22.875Z,92.06
2019-04-05T02:12:54.863Z,91.73
2019-04-05T02:15:32.055Z,92.10
2019-04-05T02:18:03.888Z,92.19
2019-04-05T02:20:35.847Z,91.96
2019-04-05T02:23:07.618Z,92.24
2019-04-05T02:25:39.480Z,92.42
2019-04-05T02:28:12.024Z,92.53
2019-04-05T02:30:43.923Z,92.26
2019-04-05T02:33:16.608Z,92.17
2019-04-05T02:35:48.553Z,92.41
2019-04-05T02:38:20.328Z,92.35
2019-04-05T02:40:53.472Z,92.12
2019-04-05T02:43:28.258Z,92.50
2019-04-05T02:46:01.095Z,92.93
2019-04-05T02:48:35.959Z,93.45
2019-04-05T02:51:10.163Z,93.18
2019-04-05T02:53:42.644Z,93.19
2019-04-05T02:56:14.920Z,92.67
2019-04-05T02:58:47.450Z,92.81
2019-04-05T03:01:22.623Z,93.24
2019-04-05T03:03:53.276Z,93.07
2019-04-05T03:06:25.538Z,92.97
2019-04-05T03:08:58.113Z,93.67
2019-04-05T03:11:33.825Z,93.60
2019-04-05T03:14:06.521Z,93.84
2019-04-05T03:16:42.390Z,93.26
2019-04-05T03:19:22.705Z,93.44
2019-04-05T03:22:02.183Z,92.55
2019-04-05T03:24:37.373Z,92.99
2019-04-05T03:27:17.452Z,93.19
2019-04-05T03:29:49.471Z,92.33
2019-04-05T03:32:21.464Z,92.66
2019-04-05T03:34:54.261Z,92.06
2019-04-05T03:37:26.742Z,92.24
2019-04-05T03:39:58.789Z,92.75
2019-04-05T03:42:32.112Z,92.70
2019-04-05T03:45:04.153Z,92.55
2019-04-05T03:47:36.123Z,92.89
2019-04-05T03:50:09.172Z,94.22
2019-04-05T03:52:41.656Z,94.14
2019-04-05T03:55:13.841Z,92.43
2019-04-05T03:57:45.999Z,92.51
2019-04-05T04:00:17.968Z,93.42
2019-04-05T04:02:50.270Z,92.78
2019-04-05T04:05:22.331Z,92.46
2019-04-05T04:07:54.389Z,93.04
2019-04-05T04:10:28.657Z,92.57
2019-04-05T04:13:00.747Z,92.21
2019-04-05T04:15:34.909Z,91.57
2019-04-05T04:18:07.756Z,92.84
2019-04-05T04:20:48.668Z,91.95
2019-04-05T04:23:21.946Z,93.06
2019-04-05T04:25:55.328Z,92.27
2019-04-05T04:28:27.755Z,92.32
2019-04-05T04:31:00.065Z,93.60
2019-04-05T04:33:32.060Z,93.00
2019-04-05T04:36:04.178Z,92.02
2019-04-05T04:38:36.078Z,92.64
2019-04-05T04:41:08.861Z,92.95
2019-04-05T04:43:41.132Z,92.41
2019-04-05T04:46:13.523Z,91.40
2019-04-05T04:48:46.478Z,91.65
2019-04-05T04:51:19.379Z,91.47
2019-04-05T04:53:52.419Z,91.39
2019-04-05T04:56:24.875Z,91.82
2019-04-05T04:58:56.898Z,92.19
2019-04-05T05:01:29.078Z,92.55
2019-04-05T05:04:01.014Z,93.23
2019-04-05T05:06:32.915Z,92.96
2019-04-05T05:09:07.641Z,93.25
2019-04-05T05:11:39.736Z,92.55
2019-04-05T05:14:12.098Z,92.71
2019-04-05T05:16:44.653Z,92.70
2019-04-05T05:19:16.552Z,94.06
2019-04-05T05:21:49.615Z,92.82
2019-04-05T05:24:22.040Z,93.29
2019-04-05T05:26:53.859Z,93.20
2019-04-05T05:29:25.948Z,92.89
2019-04-05T05:31:57.865Z,94.05
2019-04-05T05:34:29.742Z,93.85
2019-04-05T05:37:01.631Z,93.43
2019-04-05T05:39:33.436Z,93.70
2019-04-05T05:42:05.345Z,93.50
2019-04-05T05:44:37.185Z,93.46
2019-04-05T05:47:09.083Z,93.12
2019-04-05T05:49:40.975Z,93.90
2019-04-05T05:52:12.895Z,95.01
2019-04-05T05:54:44.631Z,94.20
2019-04-05T05:57:16.458Z,94.62
2019-04-05T05:59:48.227Z,95.32
2019-04-05T06:02:20.031Z,94.13
2019-04-05T06:04:51.790Z,93.95
2019-04-05T06:07:23.547Z,94.36
2019-04-05T06:09:55.295Z,94.29
2019-04-05T06:12:27.106Z,93.67
2019-04-05T06:14:58.849Z,93.28
2019-04-05T06:17:30.658Z,93.43
2019-04-05T06:20:02.872Z,93.38
2019-04-05T06:22:35.261Z,93.68
2019-04-05T06:25:07.575Z,95.38
2019-04-05T06:27:39.321Z,93.75
2019-04-05T06:30:11.752Z,93.54
2019-04-05T06:32:43.644Z,95.87
2019-04-05T06:35:15.547Z,96.35
2019-04-05T06:37:47.296Z,95.22
2019-04-05T06:40:19.178Z,95.76
2019-04-05T06:42:50.919Z,96.77
2019-04-05T06:45:22.817Z,95.95
2019-04-05T06:47:54.640Z,94.50
2019-04-05T06:50:26.382Z,94.29
2019-04-05T06:52:58.569Z,94.89
2019-04-05T06:55:30.313Z,94.12
2019-04-05T06:58:02.054Z,94.49
2019-04-05T07:00:33.784Z,94.61
2019-04-05T07:03:05.668Z,94.10
2019-04-05T07:05:37.559Z,94.57
2019-04-05T07:08:09.316Z,95.15
2019-04-05T07:10:41.365Z,94.08
2019-04-05T07:13:13.093Z,92.93
2019-04-05T07:15:44.897Z,93.30
2019-04-05T07:18:16.945Z,94.38
2019-04-05T07:20:49.226Z,93.53
2019-04-05T07:23:21.069Z,92.39
2019-04-05T07:25:52.875Z,92.55
2019-04-05T07:28:25.231Z,94.03
2019-04-05T07:30:57.131Z,93.37
2019-04-05T07:33:29.186Z,92.93
2019-04-05T07:36:03.370Z,92.97
2019-04-05T07:38:34.339Z,93.23
2019-04-05T07:41:06.170Z,93.21
2019-04-05T07:43:38.001Z,92.35
2019-04-05T07:46:09.745Z,93.62
2019-04-05T07:48:45.023Z,93.02
2019-04-05T07:51:15.434Z,92.31
2019-04-05T07:53:47.179Z,92.87
2019-04-05T07:56:18.906Z,93.67
2019-04-05T07:58:50.715Z,92.77
2019-04-05T08:01:23.671Z,92.53
2019-04-05T08:03:58.025Z,91.68
2019-04-05T08:06:30.481Z,92.44
2019-04-05T08:09:14.075Z,92.48
2019-04-05T08:11:46.651Z,91.88
2019-04-05T08:14:19.788Z,90.96
2019-04-05T08:16:51.764Z,92.18
2019-04-05T08:19:23.661Z,91.90
2019-04-05T08:21:55.469Z,92.12
2019-04-05T08:24:27.607Z,92.91
2019-04-05T08:26:59.512Z,93.08
2019-04-05T08:29:31.349Z,92.79
2019-04-05T08:32:13.998Z,92.21
2019-04-05T08:34:36.683Z,91.97
2019-04-05T08:37:08.500Z,92.77
2019-04-05T08:39:40.231Z,92.38
2019-04-05T08:42:12.064Z,91.78
2019-04-05T08:44:43.874Z,91.86
2019-04-05T08:47:15.812Z,91.39
2019-04-05T08:49:47.663Z,91.65
2019-04-05T08:52:19.402Z,92.00
2019-04-05T08:54:51.146Z,91.70
2019-04-05T08:57:22.884Z,91.37
2019-04-05T08:59:54.634Z,91.76
2019-04-05T09:02:26.348Z,90.28
2019-04-05T09:04:58.262Z,90.20
2019-04-05T09:07:29.990Z,90.35
2019-04-05T09:10:01.755Z,91.11
2019-04-05T09:12:33.777Z,91.08
2019-04-05T09:15:05.931Z,91.28
2019-04-05T09:17:37.740Z,91.01
2019-04-05T09:20:09.641Z,90.69
2019-04-05T09:22:41.360Z,90.60
2019-04-05T09:25:13.188Z,90.29
2019-04-05T09:27:44.928Z,90.47
2019-04-05T09:30:16.917Z,90.00
2019-04-05T09:32:48.732Z,90.17
2019-04-05T09:35:20.471Z,90.01
2019-04-05T09:37:52.213Z,89.77
2019-04-05T09:40:24.124Z,90.42
2019-04-05T09:42:55.960Z,88.58
2019-04-05T09:45:27.903Z,89.62
2019-04-05T09:48:00.046Z,88.28
2019-04-05T09:50:32.172Z,88.12
2019-04-05T09:53:03.964Z,87.49
2019-04-05T09:55:35.857Z,87.44
2019-04-05T09:58:10.059Z,88.12
2019-04-05T10:00:41.522Z,89.04
2019-04-05T10:03:13.319Z,87.58
2019-04-05T10:05:45.053Z,89.92
2019-04-05T10:08:16.780Z,88.94
2019-04-05T10:10:48.784Z,88.19
2019-04-05T10:13:20.853Z,88.11
2019-04-05T10:15:52.666Z,87.59
2019-04-05T10:18:24.392Z,87.04
2019-04-05T10:20:56.231Z,86.55
2019-04-05T10:23:28.017Z,85.31
2019-04-05T10:25:59.933Z,85.31
2019-04-05T10:28:31.667Z,85.52
2019-04-05T10:31:03.772Z,84.99
2019-04-05T10:33:35.481Z,86.50
2019-04-05T10:36:07.300Z,87.51
2019-04-05T10:38:39.389Z,87.32
2019-04-05T10:41:11.820Z,85.75
2019-04-05T10:43:44.303Z,85.21
2019-04-05T10:46:16.050Z,83.67
2019-04-05T10:48:47.775Z,83.37
2019-04-05T10:51:19.587Z,85.34
2019-04-05T10:53:51.319Z,83.88
2019-04-05T10:56:23.361Z,84.36
2019-04-05T10:58:55.167Z,84.09
2019-04-05T11:01:28.045Z,84.81
2019-04-05T11:03:59.770Z,83.68
2019-04-05T11:06:31.553Z,83.46
2019-04-05T11:09:04.287Z,84.54
2019-04-05T11:11:36.344Z,84.46
2019-04-05T11:14:14.066Z,83.83
2019-04-05T11:16:41.724Z,82.73
2019-04-05T11:19:13.898Z,82.84
2019-04-05T11:21:47.859Z,81.67
2019-04-05T11:24:19.083Z,81.79
2019-04-05T11:26:51.858Z,82.38
2019-04-05T11:29:23.591Z,81.71
2019-04-05T11:31:57.459Z,81.58
2019-04-05T11:34:28.897Z,82.15
2019-04-05T11:37:03.032Z,83.15
2019-04-05T11:39:34.958Z,82.99
2019-04-05T11:42:06.939Z,82.58
2019-04-05T11:44:41.574Z,82.76
2019-04-05T11:47:13.538Z,81.93
2019-04-05T11:49:48.311Z,80.13
2019-04-05T11:52:20.256Z,79.80
2019-04-05T11:54:52.355Z,79.09
2019-04-05T11:57:24.114Z,79.78
2019-04-05T11:59:55.914Z,79.42
2019-04-05T12:02:36.347Z,80.59
2019-04-05T12:05:09.123Z,80.89
2019-04-05T12:07:40.840Z,81.41
2019-04-05T12:10:13.176Z,80.94
2019-04-05T12:12:44.969Z,81.12
2019-04-05T12:15:17.153Z,80.63
2019-04-05T12:17:48.875Z,79.90
2019-04-05T12:20:20.838Z,79.76
2019-04-05T12:22:53.620Z,79.50
2019-04-05T12:25:25.418Z,78.98
2019-04-05T12:28:06.335Z,78.95
2019-04-05T12:30:31.251Z,79.05
2019-04-05T12:33:13.191Z,79.30
2019-04-05T12:35:37.712Z,78.94
2019-04-05T12:38:09.676Z,79.21
2019-04-05T12:40:41.426Z,79.45
2019-04-05T12:43:14.277Z,79.50
2019-04-05T12:45:46.221Z,79.20
2019-04-05T12:48:17.958Z,79.08
2019-04-05T12:51:00.552Z,79.63
2019-04-05T12:53:26.241Z,79.99
2019-04-05T12:55:57.092Z,80.25
2019-04-05T12:58:29.170Z,80.07
2019-04-05T13:01:00.895Z,79.14
2019-04-05T13:03:32.786Z,79.29
2019-04-05T13:06:04.788Z,79.22
2019-04-05T13:08:36.514Z,78.49
2019-04-05T13:11:08.332Z,78.53
2019-04-05T13:13:40.205Z,78.50
2019-04-05T13:16:12.151Z,78.51
2019-04-05T13:18:43.903Z,78.18
2019-04-05T13:21:16.654Z,78.95
2019-04-05T13:23:48.404Z,78.86
2019-04-05T13:26:20.115Z,79.64
2019-04-05T13:28:51.846Z,78.69
2019-04-05T13:31:23.573Z,79.63
2019-04-05T13:33:55.703Z,79.44
2019-04-05T13:36:27.374Z,78.92
2019-04-05T13:39:00.385Z,78.75
2019-04-05T13:41:34.099Z,78.75
2019-04-05T13:44:06.136Z,78.87
2019-04-05T13:46:39.117Z,78.27
2019-04-05T13:49:11.177Z,78.67
2019-04-05T13:51:43.959Z,78.33
2019-04-05T13:54:15.714Z,77.34
2019-04-05T13:56:47.640Z,76.96
2019-04-05T13:59:19.500Z,77.05
2019-04-05T14:01:51.603Z,76.53
2019-04-05T14:04:23.474Z,76.77
2019-04-05T14:06:55.356Z,77.61
2019-04-05T14:09:27.077Z,78.02
2019-04-05T14:11:58.863Z,78.06
2019-04-05T14:14:30.739Z,77.60
2019-04-05T14:17:02.523Z,77.24
2019-04-05T14:19:34.500Z,76.81
2019-04-05T14:22:08.984Z,76.06
2019-04-05T14:24:39.931Z,75.18
2019-04-05T14:27:11.807Z,76.83
2019-04-05T14:29:43.873Z,76.28
2019-04-05T14:32:21.301Z,76.20
2019-04-05T14:34:49.548Z,76.80
2019-04-05T14:37:24.812Z,76.55
2019-04-05T14:39:54.778Z,76.33
2019-04-05T14:42:29.671Z,76.34
2019-04-05T14:45:01.630Z,76.28
2019-04-05T14:47:33.707Z,75.35
2019-04-05T14:50:07.161Z,75.63
2019-04-05T14:52:40.117Z,76.06
2019-04-05T14:55:11.977Z,75.99
2019-04-05T14:57:43.772Z,76.69
2019-04-05T15:00:17.403Z,76.49
2019-04-05T15:02:49.424Z,77.06
2019-04-05T15:05:21.547Z,77.37
2019-04-05T15:07:54.971Z,77.68
2019-04-05T15:10:27.264Z,77.72
2019-04-05T15:13:00.383Z,77.34
2019-04-05T15:15:32.279Z,77.23
2019-04-05T15:18:04.005Z,78.47
2019-04-05T15:20:35.724Z,77.30
2019-04-05T15:23:09.529Z,76.93
2019-04-05T15:25:41.115Z,76.73
2019-04-05T15:28:12.943Z,76.57
2019-04-05T15:30:44.724Z,76.42
2019-04-05T15:33:16.439Z,76.39
2019-04-05T15:35:48.842Z,77.23
2019-04-05T15:38:20.856Z,77.36
2019-04-05T15:40:52.926Z,77.78
2019-04-05T15:43:24.649Z,77.59
2019-04-05T15:45:56.409Z,77.81
2019-04-05T15:48:28.344Z,78.26
2019-04-05T15:51:00.357Z,77.84
2019-04-05T15:53:32.674Z,77.31
2019-04-05T15:56:04.930Z,77.16
2019-04-05T15:58:37.672Z,77.35
2019-04-05T16:01:10.262Z,77.73
2019-04-05T16:03:42.127Z,77.65
2019-04-05T16:06:14.241Z,77.86
2019-04-05T16:08:46.053Z,77.70
2019-04-05T16:11:17.871Z,77.50
2019-04-05T16:13:49.636Z,77.20
2019-04-05T16:16:21.370Z,77.21
2019-04-05T16:18:53.469Z,77.16
2019-04-05T16:21:25.415Z,77.16
2019-04-05T16:23:57.217Z,77.33
2019-04-05T16:26:29.121Z,77.51
2019-04-05T16:29:01.248Z,77.49
2019-04-05T16:31:33.155Z,76.99
2019-04-05T16:34:04.859Z,77.19
2019-04-05T16:36:36.600Z,77.31
2019-04-05T16:39:13.393Z,77.20
2019-04-05T16:41:45.202Z,77.14
2019-04-05T16:44:16.961Z,77.47
2019-04-05T16:46:49.004Z,77.20
2019-04-05T16:49:21.050Z,77.37
2019-04-05T16:51:52.863Z,77.56
2019-04-05T16:54:24.898Z,77.40
2019-04-05T16:56:56.719Z,77.53
2019-04-05T16:59:28.504Z,77.95
2019-04-05T17:02:01.443Z,78.20
2019-04-05T17:04:33.260Z,78.22
2019-04-05T17:07:06.258Z,78.64
2019-04-05T17:09:38.048Z,78.72
2019-04-05T17:12:09.963Z,78.89
2019-04-05T17:14:42.352Z,79.85
2019-04-05T17:17:14.097Z,78.82
2019-04-05T17:19:45.878Z,79.26
2019-04-05T17:22:17.915Z,79.04
2019-04-05T17:24:49.971Z,78.82
2019-04-05T17:27:21.771Z,79.30
2019-04-05T17:29:53.508Z,78.75
2019-04-05T17:32:25.246Z,78.73
2019-04-05T17:34:56.999Z,78.97
2019-04-05T17:37:28.823Z,79.06
2019-04-05T17:40:00.816Z,79.16
2019-04-05T17:42:34.785Z,79.55
2019-04-05T17:45:07.667Z,79.87
2019-04-05T17:47:39.629Z,79.97
2019-04-05T17:53:13.187Z,79.93
2019-04-05T17:55:42.944Z,79.81
2019-04-05T17:58:15.518Z,79.68
2019-04-05T18:00:47.483Z,79.86
2019-04-05T18:03:19.274Z,79.47
2019-04-05T18:05:51.013Z,80.08
2019-04-05T18:08:23.091Z,79.65
2019-04-05T18:10:54.821Z,79.02
2019-04-05T18:13:26.549Z,78.94
2019-04-05T18:15:58.298Z,79.10
2019-04-05T18:18:30.042Z,79.29
2019-04-05T18:21:01.841Z,79.61
2019-04-05T18:23:33.569Z,79.58
2019-04-05T18:26:05.530Z,79.62
2019-04-05T18:28:37.354Z,79.62
2019-04-05T18:31:09.224Z,79.65
2019-04-05T18:33:41.043Z,79.73
2019-04-05T18:36:12.885Z,80.33
2019-04-05T18:38:45.271Z,80.76
2019-04-05T18:41:17.079Z,80.84
2019-04-05T18:43:49.192Z,81.43
2019-04-05T18:46:21.889Z,81.31
2019-04-05T18:48:53.622Z,81.48
2019-04-05T18:51:25.714Z,81.61
2019-04-05T18:53:58.104Z,81.90
2019-04-05T18:56:29.900Z,81.83
2019-04-05T18:59:01.886Z,82.09
2019-04-05T19:01:33.619Z,82.50
2019-04-05T19:04:05.786Z,82.31
2019-04-05T19:06:37.531Z,82.43
2019-04-05T19:09:11.906Z,82.12
2019-04-05T19:11:43.215Z,82.14
2019-04-05T19:14:14.944Z,82.36
2019-04-05T19:16:46.708Z,82.77
2019-04-05T19:19:18.812Z,82.91
2019-04-05T19:21:50.618Z,82.69
2019-04-05T19:24:22.371Z,82.80
2019-04-05T19:26:54.096Z,82.81
2019-04-05T19:29:26.805Z,82.60
2019-04-05T19:49:53.165Z,81.57
2019-04-05T19:52:25.957Z,81.27
2019-04-05T19:54:57.698Z,80.84
2019-04-05T19:57:29.695Z,80.67
2019-04-05T20:00:01.507Z,81.05
2019-04-05T20:02:33.347Z,81.56
2019-04-05T20:05:05.913Z,81.88
2019-04-05T20:07:37.649Z,81.00
2019-04-05T20:10:09.650Z,80.54
2019-04-05T20:12:41.405Z,81.23
2019-04-05T20:15:13.466Z,81.61
2019-04-05T20:17:45.283Z,82.28
2019-04-05T20:20:17.289Z,81.02
2019-04-05T20:22:49.016Z,80.44
2019-04-05T20:25:20.765Z,80.59
2019-04-05T20:27:52.512Z,80.79
2019-04-05T20:30:24.433Z,81.73
2019-04-05T20:32:56.186Z,82.19
2019-04-05T20:35:27.985Z,82.81
2019-04-05T20:37:59.741Z,82.86
2019-04-05T20:40:31.492Z,82.39
2019-04-05T20:43:03.221Z,82.69
2019-04-05T20:45:35.066Z,82.60
2019-04-05T20:48:06.943Z,82.66
2019-04-05T20:50:39.647Z,82.01
2019-04-05T20:53:11.512Z,82.50
2019-04-05T20:55:43.199Z,83.38
2019-04-05T20:58:14.939Z,83.51
2019-04-05T21:00:46.691Z,83.21
2019-04-05T21:03:18.715Z,83.08
2019-04-05T21:05:50.531Z,83.17
2019-04-05T21:08:22.341Z,82.56
2019-04-05T21:10:54.247Z,82.09
2019-04-05T21:13:26.137Z,82.19
2019-04-05T21:15:57.966Z,81.57
2019-04-05T21:18:29.917Z,82.18
2019-04-05T21:21:01.907Z,82.30
2019-04-05T21:23:33.802Z,83.17
2019-04-05T21:26:05.761Z,83.57
2019-04-05T21:28:37.563Z,84.41
2019-04-05T21:31:09.297Z,84.19
2019-04-05T21:33:42.063Z,84.22
2019-04-05T21:36:14.096Z,84.56
2019-04-05T21:38:45.890Z,84.67
2019-04-05T21:41:17.630Z,84.26
2019-04-05T21:43:49.364Z,84.11
2019-04-05T21:46:21.122Z,84.18
2019-04-05T21:48:52.849Z,84.58
2019-04-05T21:51:24.781Z,85.29
2019-04-05T21:53:56.740Z,85.34
2019-04-05T21:56:28.516Z,85.36
2019-04-05T21:59:00.259Z,85.95
2019-04-05T22:01:32.100Z,86.60
2019-04-05T22:04:04.593Z,86.90
2019-04-05T22:06:36.464Z,87.07
2019-04-05T22:09:10.126Z,87.26
2019-04-05T22:11:42.203Z,87.49
2019-04-05T22:14:14.009Z,86.66
2019-04-05T22:16:45.899Z,87.10
2019-04-05T22:19:17.616Z,86.34
2019-04-05T22:21:49.356Z,87.20
2019-04-05T22:24:21.102Z,87.70
2019-04-05T22:26:52.897Z,88.16
2019-04-05T22:29:26.211Z,87.50
2019-04-05T22:31:58.032Z,85.50
2019-04-05T22:34:29.730Z,84.76
2019-04-05T22:37:01.474Z,84.98
2019-04-05T22:39:33.371Z,85.04
2019-04-05T22:42:05.191Z,84.76
2019-04-05T22:44:38.964Z,84.38
2019-04-05T22:47:12.005Z,83.81
2019-04-05T22:49:43.801Z,83.16
2019-04-05T22:52:15.535Z,83.74
2019-04-05T22:54:47.256Z,83.88
2019-04-05T22:57:19.065Z,84.28
2019-04-05T22:59:50.875Z,85.01
2019-04-05T23:02:22.750Z,85.92
2019-04-05T23:04:54.498Z,85.83
2019-04-05T23:07:26.512Z,86.06
2019-04-05T23:09:58.318Z,85.77
2019-04-05T23:12:30.498Z,85.16
2019-04-05T23:15:02.218Z,85.23
2019-04-05T23:17:34.378Z,85.21
2019-04-05T23:20:07.095Z,84.28
2019-04-05T23:22:39.212Z,83.63
2019-04-05T23:25:21.502Z,83.98
2019-04-05T23:27:45.562Z,83.55
2019-04-05T23:30:18.907Z,83.31
2019-04-05T23:32:50.921Z,84.79
2019-04-05T23:35:22.656Z,85.42
2019-04-05T23:37:54.389Z,86.05
2019-04-05T23:40:26.518Z,86.37
2019-04-05T23:42:58.402Z,86.38
2019-04-05T23:45:30.105Z,86.12
2019-04-05T23:48:01.871Z,85.85
2019-04-05T23:50:33.610Z,86.34
2019-04-05T23:53:05.622Z,85.62
2019-04-05T23:55:37.373Z,84.60
2019-04-05T23:58:09.568Z,84.47
